createdAt,value
2022-12-23T00:02:42.510Z,52.70
2022-12-23T00:06:35.444Z,54.15
2022-12-23T00:10:28.202Z,53.40
2022-12-23T00:14:39.292Z,57.47
2022-12-23T00:18:32.875Z,65.07
2022-12-23T00:22:45.809Z,54.63
2022-12-23T00:26:38.964Z,57.58
2022-12-23T00:30:31.696Z,54.58
2022-12-23T00:34:24.690Z,60.80
2022-12-23T00:38:38.617Z,61.13
2022-12-23T00:42:51.716Z,55.85
2022-12-23T00:46:44.666Z,58.38
2022-12-23T00:50:39.732Z,55.83
2022-12-23T00:54:32.591Z,55.13
2022-12-23T00:58:25.961Z,56.75
2022-12-23T01:02:37.524Z,54.80
2022-12-23T01:06:30.372Z,52.20
2022-12-23T01:10:23.114Z,55.60
2022-12-23T01:14:17.773Z,57.53
2022-12-23T01:18:10.360Z,53.95
2022-12-23T01:22:03.699Z,58.28
2022-12-23T01:26:01.267Z,59.08
2022-12-23T01:29:54.073Z,59.50
2022-12-23T01:33:46.880Z,54.65
2022-12-23T01:37:39.400Z,53.50
2022-12-23T01:41:52.838Z,57.10
2022-12-23T01:45:46.239Z,55.30
2022-12-23T01:49:39.715Z,56.30
2022-12-23T01:53:37.423Z,58.25
2022-12-23T01:57:30.649Z,54.55
2022-12-23T02:01:46.023Z,56.73
2022-12-23T02:05:39.481Z,50.05
2022-12-23T02:09:38.396Z,54.78
2022-12-23T02:14:17.012Z,55.80
2022-12-23T02:18:15.333Z,53.22
2022-12-23T02:22:47.081Z,53.75
2022-12-23T02:27:16.676Z,53.67
2022-12-23T02:31:34.758Z,51.05
2022-12-23T02:35:42.768Z,50.72
2022-12-23T02:39:50.476Z,50.17
2022-12-23T02:43:47.863Z,57.17
2022-12-23T02:47:56.746Z,46.05
2022-12-23T02:51:53.998Z,47.03
2022-12-23T02:55:49.411Z,52.53
2022-12-23T02:59:48.778Z,62.83
2022-12-23T03:03:42.003Z,60.67
2022-12-23T03:07:43.444Z,65.53
2022-12-23T03:12:01.769Z,69.28
2022-12-23T03:16:11.656Z,77.25
2022-12-23T03:20:22.365Z,67.50
2022-12-23T03:24:41.097Z,78.57
2022-12-23T03:28:42.701Z,70.22
2022-12-23T03:32:46.596Z,69.18
2022-12-23T03:36:44.318Z,85.63
2022-12-23T03:44:35.998Z,57.42
2022-12-23T03:48:49.022Z,79.82
2022-12-23T03:52:52.446Z,79.97
2022-12-23T03:57:01.600Z,109.90
2022-12-23T04:01:18.753Z,99.72
2022-12-23T04:05:27.245Z,101.85
2022-12-23T04:09:22.933Z,114.78
2022-12-23T04:13:19.987Z,122.90
2022-12-23T04:17:12.625Z,91.28
2022-12-23T04:21:05.876Z,100.70
2022-12-23T04:24:58.516Z,89.30
2022-12-23T04:28:51.066Z,110.68
2022-12-23T04:32:43.772Z,87.68
2022-12-23T04:36:36.595Z,111.47
2022-12-23T04:40:29.057Z,116.60
2022-12-23T04:44:21.877Z,98.40
2022-12-23T04:48:14.306Z,101.70
2022-12-23T04:52:07.541Z,110.68
2022-12-23T04:56:00.106Z,104.40
2022-12-23T04:59:52.796Z,92.10
2022-12-23T05:03:45.623Z,100.30
2022-12-23T05:07:38.292Z,119.03
2022-12-23T05:11:37.073Z,105.40
2022-12-23T05:15:33.241Z,104.90
2022-12-23T05:19:25.953Z,113.50
2022-12-23T05:23:19.025Z,100.50
2022-12-23T05:27:11.602Z,116.50
2022-12-23T05:31:08.446Z,75.15
2022-12-23T05:35:01.082Z,102.18
2022-12-23T05:38:53.714Z,115.60
2022-12-23T05:42:46.946Z,95.53
2022-12-23T05:46:39.689Z,83.57
2022-12-23T05:50:33.071Z,72.65
2022-12-23T05:54:25.804Z,58.40
2022-12-23T05:58:18.564Z,59.55
2022-12-23T06:02:11.538Z,53.55
2022-12-23T06:06:04.565Z,57.22
2022-12-23T06:09:57.439Z,53.03
2022-12-23T06:13:50.045Z,52.58
2022-12-23T06:17:42.976Z,56.63
2022-12-23T06:21:36.979Z,50.45
2022-12-23T06:25:29.772Z,49.45
2022-12-23T06:29:22.546Z,51.72
2022-12-23T06:33:15.066Z,57.42
2022-12-23T06:37:07.898Z,58.17
2022-12-23T06:41:00.677Z,202.45
2022-12-23T06:44:53.444Z,55.67
2022-12-23T06:48:46.213Z,53.65
2022-12-23T06:52:38.886Z,55.05
2022-12-23T06:56:33.907Z,53.90
2022-12-23T07:00:26.728Z,49.55
2022-12-23T07:04:19.352Z,50.80
2022-12-23T07:08:12.181Z,56.60
2022-12-23T07:12:05.921Z,50.05
2022-12-23T07:15:59.226Z,47.75
2022-12-23T07:19:51.799Z,48.75
2022-12-23T07:23:44.713Z,54.15
2022-12-23T07:27:37.413Z,49.22
2022-12-23T07:31:32.109Z,45.20
2022-12-23T07:35:25.321Z,41.83
2022-12-23T07:39:18.034Z,45.63
2022-12-23T07:43:10.965Z,44.05
2022-12-23T07:47:03.638Z,44.65
2022-12-23T07:51:04.105Z,40.67
2022-12-23T07:54:57.049Z,37.95
2022-12-23T07:58:50.535Z,39.28
2022-12-23T08:02:44.016Z,44.28
2022-12-23T08:06:37.107Z,50.38
2022-12-23T08:10:30.007Z,50.53
2022-12-23T08:14:23.668Z,46.20
2022-12-23T08:18:16.323Z,38.53
2022-12-23T08:22:09.095Z,46.67
2022-12-23T08:26:03.670Z,57.65
2022-12-23T08:29:56.300Z,54.40
2022-12-23T08:33:52.135Z,47.42
2022-12-23T08:37:44.853Z,43.00
2022-12-23T08:41:41.415Z,38.20
2022-12-23T08:45:38.862Z,39.57
2022-12-23T08:49:31.510Z,36.67
2022-12-23T08:53:24.281Z,39.58
2022-12-23T08:57:17.043Z,38.40
2022-12-23T09:01:12.648Z,43.50
2022-12-23T09:05:05.635Z,45.42
2022-12-23T09:08:58.984Z,51.92
2022-12-23T09:12:52.002Z,47.25
2022-12-23T09:16:44.876Z,44.70
2022-12-23T09:20:39.024Z,46.20
2022-12-23T09:24:32.661Z,42.85
2022-12-23T09:28:26.355Z,38.92
2022-12-23T09:32:19.518Z,38.83
2022-12-23T09:36:12.127Z,37.53
2022-12-23T09:40:06.524Z,35.10
2022-12-23T09:44:37.770Z,37.00
2022-12-23T09:48:39.261Z,39.75
2022-12-23T09:52:49.875Z,62.00
2022-12-23T09:57:01.003Z,58.17
2022-12-23T10:01:17.013Z,40.20
2022-12-23T10:05:59.489Z,35.85
2022-12-23T10:09:54.814Z,29.23
2022-12-23T10:13:51.813Z,29.52
2022-12-23T10:17:45.855Z,33.75
2022-12-23T10:21:47.608Z,32.15
2022-12-23T10:25:50.308Z,32.00
2022-12-23T10:29:43.385Z,30.98
2022-12-23T10:34:13.791Z,29.25
2022-12-23T10:38:15.486Z,34.20
2022-12-23T10:42:11.422Z,30.40
2022-12-23T10:46:30.861Z,36.35
2022-12-23T10:50:39.565Z,27.30
2022-12-23T10:54:37.145Z,27.98
2022-12-23T10:58:30.729Z,32.38
2022-12-23T11:02:46.012Z,33.58
2022-12-23T11:06:41.280Z,31.55
2022-12-23T11:10:34.448Z,31.48
2022-12-23T11:14:31.432Z,30.05
2022-12-23T11:18:24.064Z,30.65
2022-12-23T11:22:25.562Z,35.85
2022-12-23T11:26:20.400Z,32.90
2022-12-23T11:30:20.017Z,36.33
2022-12-23T11:34:24.762Z,30.25
2022-12-23T11:38:17.460Z,31.48
2022-12-23T11:42:19.323Z,28.92
2022-12-23T11:46:24.462Z,31.35
2022-12-23T11:50:38.699Z,40.67
2022-12-23T11:54:32.907Z,39.20
2022-12-23T11:58:26.346Z,40.97
2022-12-23T12:02:39.983Z,40.33
2022-12-23T12:06:33.482Z,40.20
2022-12-23T12:10:32.947Z,35.92
2022-12-23T12:14:49.873Z,33.30
2022-12-23T12:18:43.907Z,33.47
2022-12-23T12:22:46.324Z,31.23
2022-12-23T12:26:40.816Z,34.13
2022-12-23T12:30:41.004Z,32.92
2022-12-23T12:35:01.825Z,34.13
2022-12-23T12:38:57.457Z,37.22
2022-12-23T12:43:00.140Z,38.65
2022-12-23T12:47:28.004Z,36.08
2022-12-23T12:51:31.723Z,35.30
2022-12-23T12:55:35.112Z,38.45
2022-12-23T12:59:33.169Z,37.03
2022-12-23T13:03:50.450Z,41.03
2022-12-23T13:07:49.201Z,43.30
2022-12-23T13:12:04.170Z,41.70
2022-12-23T13:16:02.619Z,37.15
2022-12-23T13:20:23.425Z,36.13
2022-12-23T13:24:34.519Z,34.78
2022-12-23T13:28:45.931Z,38.80
2022-12-23T13:33:24.364Z,37.35
2022-12-23T13:37:42.494Z,35.47
2022-12-23T13:45:38.862Z,42.42
2022-12-23T13:49:40.479Z,56.22
2022-12-23T13:53:48.252Z,59.67
2022-12-23T13:58:02.166Z,57.88
2022-12-23T14:01:56.843Z,67.47
2022-12-23T14:05:53.370Z,67.18
2022-12-23T14:09:53.372Z,66.22
2022-12-23T14:13:52.235Z,72.90
2022-12-23T14:18:06.832Z,73.65
2022-12-23T14:22:51.155Z,89.03
2022-12-23T14:27:17.480Z,68.10
2022-12-23T14:31:44.944Z,89.85
2022-12-23T14:36:13.360Z,85.18
2022-12-23T14:40:37.243Z,109.80
2022-12-23T14:44:35.835Z,83.88
2022-12-23T14:48:44.818Z,86.43
2022-12-23T14:52:48.566Z,86.43
2022-12-23T14:56:42.115Z,94.25
2022-12-23T15:00:46.459Z,99.03
2022-12-23T15:04:55.051Z,103.82
2022-12-23T15:08:51.016Z,100.10
2022-12-23T15:12:48.356Z,89.57
2022-12-23T15:16:45.291Z,106.88
2022-12-23T15:20:38.535Z,85.13
2022-12-23T15:24:31.201Z,78.40
2022-12-23T15:28:38.985Z,80.65
2022-12-23T15:32:32.182Z,89.45
2022-12-23T15:36:32.340Z,109.70
2022-12-23T15:40:31.820Z,90.82
2022-12-23T15:44:33.443Z,90.80
2022-12-23T15:48:32.199Z,79.72
2022-12-23T15:52:25.451Z,78.10
2022-12-23T15:56:25.997Z,93.38
2022-12-23T16:00:21.957Z,91.15
2022-12-23T16:04:27.071Z,80.82
2022-12-23T16:08:29.592Z,91.75
2022-12-23T16:12:25.934Z,92.32
2022-12-23T16:16:42.694Z,90.78
2022-12-23T16:20:42.040Z,92.32
2022-12-23T16:24:34.893Z,103.72
2022-12-23T16:28:33.768Z,90.82
2022-12-23T16:32:26.649Z,95.07
2022-12-23T16:36:28.429Z,88.18
2022-12-23T16:40:21.449Z,76.82
2022-12-23T16:44:14.313Z,86.25
2022-12-23T16:48:18.720Z,103.00
2022-12-23T16:52:14.495Z,113.22
2022-12-23T16:56:18.634Z,101.28
2022-12-23T17:00:16.782Z,89.40
2022-12-23T17:04:09.758Z,77.15
2022-12-23T17:08:02.522Z,96.53
2022-12-23T17:11:58.071Z,89.25
2022-12-23T17:15:50.918Z,93.35
2022-12-23T17:19:43.875Z,93.22
2022-12-23T17:23:36.476Z,114.85
2022-12-23T17:27:29.307Z,87.75
2022-12-23T17:31:27.157Z,92.63
2022-12-23T17:35:21.136Z,84.50
2022-12-23T17:39:13.820Z,78.53
2022-12-23T17:43:06.476Z,80.97
2022-12-23T17:46:59.277Z,82.22
2022-12-23T17:50:52.351Z,92.57
2022-12-23T17:54:48.088Z,102.15
2022-12-23T17:58:42.134Z,87.00
2022-12-23T18:02:35.639Z,74.70
2022-12-23T18:06:29.220Z,63.88
2022-12-23T18:10:25.514Z,70.97
2022-12-23T18:14:24.033Z,84.55
2022-12-23T18:18:27.581Z,56.30
2022-12-23T18:22:24.134Z,48.95
2022-12-23T18:26:17.179Z,48.05
2022-12-23T18:30:10.717Z,49.55
2022-12-23T18:34:04.118Z,57.80
2022-12-23T18:37:58.517Z,62.00
2022-12-23T18:41:51.422Z,59.13
2022-12-23T18:45:50.715Z,52.78
2022-12-23T18:49:45.439Z,68.47
2022-12-23T18:53:38.183Z,71.22
2022-12-23T18:57:31.036Z,50.88
2022-12-23T19:01:26.334Z,53.53
2022-12-23T19:05:25.946Z,39.85
2022-12-23T19:09:21.979Z,47.47
2022-12-23T19:13:15.699Z,46.80
2022-12-23T19:17:08.549Z,58.13
2022-12-23T19:21:04.731Z,68.57
2022-12-23T19:25:05.961Z,55.60
2022-12-23T19:28:59.402Z,56.97
2022-12-23T19:32:53.654Z,64.18
2022-12-23T19:36:46.484Z,53.70
2022-12-23T19:40:39.866Z,68.82
2022-12-23T19:44:32.542Z,62.63
2022-12-23T19:48:25.530Z,62.03
2022-12-23T19:52:18.212Z,66.25
2022-12-23T19:56:16.982Z,49.58
2022-12-23T20:00:10.400Z,61.50
2022-12-23T20:04:03.698Z,56.92
2022-12-23T20:07:56.350Z,63.83
2022-12-23T20:11:50.441Z,61.13
2022-12-23T20:15:43.180Z,51.90
2022-12-23T20:19:39.128Z,49.20
2022-12-23T20:23:36.779Z,46.22
2022-12-23T20:27:29.643Z,44.13
2022-12-23T20:31:25.296Z,62.38
2022-12-23T20:35:18.608Z,56.45
2022-12-23T20:39:11.623Z,50.35
2022-12-23T20:43:04.557Z,59.42
2022-12-23T20:46:57.439Z,55.30
2022-12-23T20:50:50.104Z,57.03
2022-12-23T20:54:43.037Z,60.70
2022-12-23T20:58:57.901Z,60.85
2022-12-23T21:02:50.971Z,71.70
2022-12-23T21:06:44.312Z,59.58
2022-12-23T21:10:37.191Z,45.35
2022-12-23T21:14:29.891Z,45.60
2022-12-23T21:18:22.462Z,48.13
2022-12-23T21:22:15.405Z,45.03
2022-12-23T21:26:14.332Z,44.70
2022-12-23T21:30:07.555Z,45.97
2022-12-23T21:34:02.538Z,47.50
2022-12-23T21:37:55.113Z,49.95
2022-12-23T21:41:51.214Z,46.60
2022-12-23T21:45:43.938Z,42.55
2022-12-23T21:49:36.752Z,43.38
2022-12-23T21:53:29.490Z,41.17
2022-12-23T21:57:22.035Z,45.58
2022-12-23T22:01:20.657Z,39.85
2022-12-23T22:05:14.945Z,47.67
2022-12-23T22:09:08.345Z,48.10
2022-12-23T22:13:01.184Z,54.08
2022-12-23T22:16:53.871Z,44.58
2022-12-23T22:20:46.708Z,47.70
2022-12-23T22:24:39.515Z,49.40
2022-12-23T22:28:34.074Z,47.30
2022-12-23T22:32:27.099Z,52.40
2022-12-23T22:36:20.088Z,49.30
2022-12-23T22:40:13.349Z,50.75
2022-12-23T22:44:08.349Z,49.25
2022-12-23T22:48:00.957Z,45.40
2022-12-23T22:51:54.057Z,43.13
2022-12-23T22:55:57.005Z,44.55
2022-12-23T22:59:50.160Z,43.22
2022-12-23T23:03:43.132Z,45.40
2022-12-23T23:07:35.701Z,43.67
2022-12-23T23:11:30.205Z,44.58
2022-12-23T23:15:22.821Z,41.92
2022-12-23T23:19:17.259Z,41.78
2022-12-23T23:23:10.432Z,50.35
2022-12-23T23:27:02.928Z,42.80
2022-12-23T23:31:23.859Z,46.75
2022-12-23T23:35:11.126Z,39.40
2022-12-23T23:39:04.230Z,38.80
2022-12-23T23:42:56.912Z,37.40
2022-12-23T23:46:49.646Z,34.88
2022-12-23T23:50:42.837Z,33.58
2022-12-23T23:54:35.950Z,34.53
2022-12-23T23:58:28.564Z,40.17
